KIZG 161054Z AUTO 00000KT 10SM FEW050 FEW070 BKN095 M10/M13 A3049 RMK AO2 SLP335 T11001128
KCWN 
10nm W 
161058Z AUTO 00000KT 10SM CLR M13/M14 A3033 RMK AO2 SLP271 T11331143 $